createdAt,value
2022-09-17T00:01:37.255Z,0.40
2022-09-17T00:04:06.826Z,0.60
2022-09-17T00:06:36.917Z,0.43
2022-09-17T00:09:07.085Z,0.60
2022-09-17T00:11:39.138Z,0.60
2022-09-17T00:14:09.453Z,0.50
2022-09-17T00:16:40.547Z,0.60
2022-09-17T00:19:13.811Z,0.40
2022-09-17T00:21:42.982Z,0.47
2022-09-17T00:24:13.419Z,0.50
2022-09-17T00:26:43.789Z,0.60
2022-09-17T00:29:12.669Z,0.50
2022-09-17T00:31:41.298Z,0.57
2022-09-17T00:34:09.589Z,0.60
2022-09-17T00:36:39.616Z,0.70
2022-09-17T00:39:09.913Z,0.60
2022-09-17T00:41:39.573Z,0.50
2022-09-17T00:44:48.255Z,0.57
2022-09-17T00:47:23.026Z,0.53
2022-09-17T00:49:55.662Z,0.60
2022-09-17T00:52:28.719Z,0.60
2022-09-17T00:55:02.368Z,0.50
2022-09-17T00:57:31.744Z,0.40
2022-09-17T01:00:01.657Z,0.37
2022-09-17T01:02:30.001Z,0.50
2022-09-17T01:04:58.469Z,0.53
2022-09-17T01:07:46.094Z,0.60
2022-09-17T01:10:27.841Z,0.60
2022-09-17T01:13:08.116Z,0.60
2022-09-17T01:15:43.909Z,0.50
2022-09-17T01:18:26.607Z,0.50
2022-09-17T01:21:22.703Z,0.53
2022-09-17T01:24:37.956Z,0.50
2022-09-17T01:27:26.830Z,0.70
2022-09-17T01:30:09.525Z,0.50
2022-09-17T01:32:46.413Z,0.60
2022-09-17T01:35:22.059Z,0.40
2022-09-17T01:38:01.351Z,0.40
2022-09-17T01:40:37.472Z,0.57
2022-09-17T01:43:10.402Z,0.40
2022-09-17T01:45:43.338Z,0.70
2022-09-17T01:48:18.215Z,0.60
2022-09-17T01:50:51.901Z,0.50
2022-09-17T01:53:24.288Z,0.60
2022-09-17T01:55:55.290Z,0.50
2022-09-17T01:58:28.153Z,0.60
2022-09-17T02:01:00.395Z,0.60
2022-09-17T02:03:36.678Z,0.53
2022-09-17T02:06:10.815Z,0.63
2022-09-17T02:08:46.705Z,0.70
2022-09-17T02:11:17.290Z,0.40
2022-09-17T02:13:49.694Z,0.63
2022-09-17T02:16:23.471Z,0.70
2022-09-17T02:18:57.491Z,0.50
2022-09-17T02:21:32.909Z,0.83
2022-09-17T02:24:08.697Z,0.60
2022-09-17T02:26:42.877Z,0.70
2022-09-17T02:29:20.957Z,0.50
2022-09-17T02:31:49.467Z,0.60
2022-09-17T02:34:20.158Z,0.60
2022-09-17T02:36:48.745Z,0.60
2022-09-17T02:39:17.644Z,0.53
2022-09-17T02:42:05.364Z,0.57
2022-09-17T02:44:41.496Z,0.50
2022-09-17T02:47:24.888Z,0.40
2022-09-17T02:50:18.578Z,0.50
2022-09-17T02:52:58.168Z,0.57
2022-09-17T02:55:33.095Z,0.70
2022-09-17T02:58:14.143Z,0.60
2022-09-17T03:00:43.174Z,0.87
2022-09-17T03:03:18.373Z,0.50
2022-09-17T03:05:49.288Z,0.67
2022-09-17T03:08:20.380Z,2.07
2022-09-17T03:10:50.325Z,0.60
2022-09-17T03:13:18.431Z,0.70
2022-09-17T03:15:46.863Z,0.60
2022-09-17T03:18:15.374Z,0.63
2022-09-17T03:20:43.481Z,0.50
2022-09-17T03:23:13.156Z,0.83
2022-09-17T03:25:41.580Z,0.50
2022-09-17T03:28:09.875Z,0.50
2022-09-17T03:30:38.417Z,0.40
2022-09-17T03:33:06.937Z,0.60
2022-09-17T03:35:35.110Z,0.50
2022-09-17T03:38:03.227Z,0.57
2022-09-17T03:40:33.108Z,0.53
2022-09-17T03:43:01.647Z,0.50
2022-09-17T03:45:29.883Z,0.50
2022-09-17T03:47:58.008Z,0.40
2022-09-17T03:50:26.403Z,0.57
2022-09-17T03:52:54.913Z,0.70
2022-09-17T03:55:23.065Z,0.50
2022-09-17T03:57:52.862Z,0.60
2022-09-17T04:00:21.642Z,0.50
2022-09-17T04:02:49.935Z,0.57
2022-09-17T04:05:18.372Z,0.60
2022-09-17T04:07:46.742Z,0.60
2022-09-17T04:10:15.142Z,0.70
2022-09-17T04:12:43.561Z,0.63
2022-09-17T04:15:16.043Z,0.67
2022-09-17T04:17:44.227Z,0.60
2022-09-17T04:20:12.365Z,0.60
2022-09-17T04:22:40.784Z,1.53
2022-09-17T04:25:11.174Z,0.53
2022-09-17T04:27:39.285Z,0.70
2022-09-17T04:30:08.429Z,0.50
2022-09-17T04:32:38.037Z,0.50
2022-09-17T04:35:06.551Z,0.63
2022-09-17T04:37:35.328Z,0.50
2022-09-17T04:40:07.735Z,0.50
2022-09-17T04:42:36.738Z,0.50
2022-09-17T04:45:05.181Z,0.60
2022-09-17T04:47:33.590Z,0.53
2022-09-17T04:50:03.286Z,0.60
2022-09-17T04:52:31.353Z,0.63
2022-09-17T04:54:59.591Z,0.60
2022-09-17T04:57:28.310Z,0.93
2022-09-17T04:59:56.421Z,0.60
2022-09-17T05:02:25.030Z,0.60
2022-09-17T05:04:53.692Z,0.40
2022-09-17T05:07:23.182Z,0.70
2022-09-17T05:09:51.298Z,0.60
2022-09-17T05:12:20.264Z,0.60
2022-09-17T05:14:48.425Z,0.60
2022-09-17T05:17:16.616Z,0.60
2022-09-17T05:19:53.469Z,0.50
2022-09-17T05:22:23.550Z,0.70
2022-09-17T05:24:51.645Z,0.40
2022-09-17T05:27:20.012Z,0.83
2022-09-17T05:29:48.468Z,0.60
2022-09-17T05:32:17.155Z,0.40
2022-09-17T05:34:45.342Z,0.40
2022-09-17T05:37:13.937Z,0.60
2022-09-17T05:39:43.482Z,0.70
2022-09-17T05:42:11.690Z,0.50
2022-09-17T05:44:39.878Z,0.70
2022-09-17T05:47:08.345Z,0.70
2022-09-17T05:49:36.784Z,0.63
2022-09-17T05:52:05.440Z,0.47
2022-09-17T05:54:33.601Z,0.40
2022-09-17T05:57:03.222Z,0.50
2022-09-17T05:59:31.776Z,0.60
2022-09-17T06:02:00.026Z,0.40
2022-09-17T06:04:32.675Z,0.50
2022-09-17T06:07:06.082Z,0.50
2022-09-17T06:09:36.185Z,0.50
2022-09-17T06:12:06.570Z,0.60
2022-09-17T06:14:34.712Z,0.77
2022-09-17T06:17:03.287Z,0.40
2022-09-17T06:19:31.789Z,0.50
2022-09-17T06:21:59.902Z,0.50
2022-09-17T06:24:28.189Z,0.40
2022-09-17T06:26:56.451Z,0.70
2022-09-17T06:29:26.084Z,0.40
2022-09-17T06:31:54.771Z,0.50
2022-09-17T06:34:23.166Z,0.50
2022-09-17T06:36:51.233Z,0.40
2022-09-17T06:39:19.446Z,0.53
2022-09-17T06:41:47.883Z,0.60
2022-09-17T06:44:19.066Z,0.40
2022-09-17T06:46:51.224Z,0.50
2022-09-17T06:49:19.564Z,0.43
2022-09-17T06:51:47.728Z,0.60
2022-09-17T06:54:16.169Z,0.70
2022-09-17T06:56:44.299Z,0.50
2022-09-17T06:59:12.626Z,0.50
2022-09-17T07:01:41.154Z,0.40
2022-09-17T07:04:10.691Z,0.50
2022-09-17T07:06:39.161Z,0.70
2022-09-17T07:09:10.905Z,0.40
2022-09-17T07:11:39.428Z,0.60
2022-09-17T07:14:08.538Z,0.50
2022-09-17T07:16:36.866Z,0.40
2022-09-17T07:19:05.545Z,0.50
2022-09-17T07:21:35.457Z,1.43
2022-09-17T07:24:04.598Z,0.40
2022-09-17T07:26:32.750Z,0.40
2022-09-17T07:29:01.375Z,0.50
2022-09-17T07:31:29.533Z,0.43
2022-09-17T07:33:57.695Z,0.60
2022-09-17T07:36:26.320Z,0.63
2022-09-17T07:38:55.910Z,0.60
2022-09-17T07:41:24.512Z,0.50
2022-09-17T07:43:55.510Z,0.80
2022-09-17T07:46:23.917Z,0.60
2022-09-17T07:48:52.165Z,0.60
2022-09-17T07:51:22.413Z,0.60
2022-09-17T07:53:52.512Z,0.70
2022-09-17T07:56:22.329Z,0.77
2022-09-17T07:58:50.934Z,0.60
2022-09-17T08:01:21.260Z,0.83
2022-09-17T08:03:51.697Z,0.73
2022-09-17T08:06:21.542Z,0.60
2022-09-17T08:08:50.398Z,0.67
2022-09-17T08:14:13.051Z,0.57
2022-09-17T08:16:41.478Z,0.50
2022-09-17T08:19:10.835Z,0.53
2022-09-17T08:21:39.361Z,0.50
2022-09-17T08:24:08.144Z,0.53
2022-09-17T08:26:38.849Z,0.60
2022-09-17T08:29:07.453Z,0.70
2022-09-17T08:31:35.996Z,0.53
2022-09-17T08:34:07.991Z,0.63
2022-09-17T08:36:37.240Z,0.53
2022-09-17T08:39:05.631Z,0.60
2022-09-17T08:41:43.885Z,0.40
2022-09-17T08:44:21.333Z,0.83
2022-09-17T08:46:51.937Z,0.60
2022-09-17T08:49:31.730Z,0.40
2022-09-17T08:52:20.539Z,0.50
2022-09-17T08:54:56.571Z,0.73
2022-09-17T08:57:32.416Z,0.50
2022-09-17T09:00:05.315Z,0.47
2022-09-17T09:03:01.195Z,0.50
2022-09-17T09:05:33.838Z,0.60
2022-09-17T09:08:06.689Z,0.53
2022-09-17T09:10:44.370Z,0.60
2022-09-17T09:13:19.582Z,0.60
2022-09-17T09:15:53.545Z,0.77
2022-09-17T09:18:23.737Z,0.40
2022-09-17T09:20:55.710Z,0.60
2022-09-17T09:23:35.467Z,0.50
2022-09-17T09:26:16.127Z,0.60
2022-09-17T09:29:06.014Z,0.60
2022-09-17T09:31:59.869Z,0.67
2022-09-17T09:34:30.505Z,0.80
2022-09-17T09:37:10.466Z,0.60
2022-09-17T09:39:45.842Z,0.40
2022-09-17T09:42:21.393Z,0.50
2022-09-17T09:44:51.404Z,0.43
2022-09-17T09:47:32.072Z,0.60
2022-09-17T09:50:13.618Z,0.50
2022-09-17T09:52:53.457Z,0.60
2022-09-17T09:55:37.406Z,0.60
2022-09-17T09:58:17.589Z,0.50
2022-09-17T10:00:47.248Z,0.40
2022-09-17T10:03:21.592Z,0.40
2022-09-17T10:05:59.206Z,0.57
2022-09-17T10:08:28.018Z,0.40
2022-09-17T10:10:58.525Z,0.60
2022-09-17T10:13:27.745Z,0.50
2022-09-17T10:15:57.744Z,0.50
2022-09-17T10:18:26.790Z,0.50
2022-09-17T10:21:00.318Z,0.60
2022-09-17T10:23:31.779Z,0.40
2022-09-17T10:26:00.075Z,0.50
2022-09-17T10:28:35.052Z,0.40
2022-09-17T10:31:10.305Z,0.50
2022-09-17T10:33:42.533Z,0.60
2022-09-17T10:36:14.868Z,0.30
2022-09-17T10:38:44.514Z,0.33
2022-09-17T10:41:15.799Z,0.50
2022-09-17T10:43:44.425Z,0.47
2022-09-17T10:46:18.377Z,0.57
2022-09-17T10:48:54.296Z,0.67
2022-09-17T10:51:25.437Z,0.30
2022-09-17T10:54:20.873Z,0.67
2022-09-17T10:56:54.120Z,0.47
2022-09-17T10:59:58.966Z,0.50
2022-09-17T11:02:53.908Z,0.40
2022-09-17T11:05:40.013Z,0.60
2022-09-17T11:08:14.235Z,0.60
2022-09-17T11:10:52.258Z,0.40
2022-09-17T11:13:29.146Z,0.77
2022-09-17T11:16:14.344Z,0.47
2022-09-17T11:18:47.158Z,0.60
2022-09-17T11:21:34.141Z,0.30
2022-09-17T11:24:37.537Z,0.40
2022-09-17T11:27:13.936Z,0.50
2022-09-17T11:30:05.014Z,0.40
2022-09-17T11:33:08.958Z,0.60
2022-09-17T11:35:42.362Z,0.43
2022-09-17T11:38:17.355Z,0.63
2022-09-17T11:40:48.630Z,0.40
2022-09-17T11:43:24.978Z,0.30
2022-09-17T11:46:03.011Z,0.50
2022-09-17T11:48:37.375Z,0.40
2022-09-17T11:51:16.416Z,0.40
2022-09-17T11:53:49.169Z,0.60
2022-09-17T11:56:24.396Z,0.40
2022-09-17T11:58:59.793Z,0.40
2022-09-17T12:01:34.844Z,0.50
2022-09-17T12:04:18.073Z,0.30
2022-09-17T12:06:53.743Z,0.30
2022-09-17T12:09:26.599Z,0.50
2022-09-17T12:12:00.084Z,0.40
2022-09-17T12:14:32.985Z,0.50
2022-09-17T12:17:03.217Z,0.47
2022-09-17T12:19:36.041Z,0.40
2022-09-17T12:22:13.180Z,0.40
2022-09-17T12:24:42.066Z,0.50
2022-09-17T12:27:24.605Z,0.30
2022-09-17T12:30:10.571Z,0.40
2022-09-17T12:33:14.419Z,0.43
2022-09-17T12:36:06.512Z,0.30
2022-09-17T12:39:03.114Z,0.27
2022-09-17T12:41:40.916Z,0.50
2022-09-17T12:44:27.117Z,0.40
2022-09-17T12:47:14.386Z,0.50
2022-09-17T12:50:00.748Z,0.40
2022-09-17T12:52:44.411Z,0.60
2022-09-17T12:55:25.201Z,0.50
2022-09-17T12:58:02.163Z,0.50
2022-09-17T13:00:30.642Z,0.77
2022-09-17T13:03:08.601Z,0.80
2022-09-17T13:05:57.979Z,0.80
2022-09-17T13:08:58.892Z,0.90
2022-09-17T13:11:55.616Z,1.00
2022-09-17T13:14:29.318Z,0.93
2022-09-17T13:17:03.988Z,0.80
2022-09-17T13:19:40.360Z,0.80
2022-09-17T13:22:16.534Z,0.70
2022-09-17T13:24:47.385Z,0.57
2022-09-17T13:27:25.815Z,0.57
2022-09-17T13:30:04.105Z,0.40
2022-09-17T13:32:52.470Z,0.43
2022-09-17T13:35:51.824Z,0.50
2022-09-17T13:38:24.507Z,0.50
2022-09-17T13:40:53.532Z,0.40
2022-09-17T13:43:28.122Z,0.50
2022-09-17T13:46:18.544Z,0.50
2022-09-17T13:48:55.436Z,0.60
2022-09-17T13:51:50.136Z,0.50
2022-09-17T13:54:21.273Z,0.60
2022-09-17T13:57:07.075Z,0.53
2022-09-17T13:59:38.593Z,0.63
2022-09-17T14:02:35.323Z,0.60
2022-09-17T14:05:26.589Z,0.57
2022-09-17T14:08:27.445Z,0.97
2022-09-17T14:10:56.967Z,0.70
2022-09-17T14:13:45.015Z,0.77
2022-09-17T14:16:36.114Z,1.07
2022-09-17T14:19:23.150Z,1.00
2022-09-17T14:22:01.080Z,0.70
2022-09-17T14:24:38.637Z,0.70
2022-09-17T14:27:16.843Z,0.83
2022-09-17T14:30:16.785Z,1.00
2022-09-17T14:32:53.602Z,0.90
2022-09-17T14:35:26.012Z,1.10
2022-09-17T14:37:59.284Z,1.00
2022-09-17T14:40:28.352Z,1.00
2022-09-17T14:42:58.646Z,1.00
2022-09-17T14:45:30.639Z,1.03
2022-09-17T14:48:27.535Z,0.70
2022-09-17T14:51:18.960Z,1.20
2022-09-17T14:53:48.190Z,0.97
2022-09-17T14:56:20.828Z,1.10
2022-09-17T14:58:51.878Z,1.10
2022-09-17T15:01:29.321Z,1.40
2022-09-17T15:06:51.660Z,1.07
2022-09-17T15:09:23.960Z,0.70
2022-09-17T15:11:55.240Z,0.70
2022-09-17T15:14:28.838Z,0.60
2022-09-17T15:16:59.848Z,0.70
2022-09-17T15:19:33.488Z,0.83
2022-09-17T15:22:10.293Z,0.60
2022-09-17T15:24:42.824Z,1.10
2022-09-17T15:27:15.330Z,0.80
2022-09-17T15:29:48.065Z,1.30
2022-09-17T15:32:16.966Z,1.27
2022-09-17T15:34:45.082Z,1.17
2022-09-17T15:37:22.561Z,1.10
2022-09-17T15:39:52.202Z,0.93
2022-09-17T15:42:23.454Z,0.90
2022-09-17T15:44:52.200Z,1.20
2022-09-17T15:47:50.235Z,1.53
2022-09-17T15:50:21.056Z,1.60
2022-09-17T15:52:52.354Z,1.00
2022-09-17T15:55:37.835Z,0.70
2022-09-17T15:58:20.509Z,0.70
2022-09-17T16:00:48.981Z,0.70
2022-09-17T16:03:53.646Z,0.70
2022-09-17T16:06:37.653Z,0.70
2022-09-17T16:09:39.870Z,1.00
2022-09-17T16:12:08.333Z,0.67
2022-09-17T16:14:36.439Z,0.80
2022-09-17T16:17:38.825Z,0.97
2022-09-17T16:20:10.573Z,0.80
2022-09-17T16:22:38.820Z,0.90
2022-09-17T16:25:09.263Z,1.00
2022-09-17T16:27:46.062Z,1.00
2022-09-17T16:30:17.803Z,0.80
2022-09-17T16:32:46.350Z,0.87
2022-09-17T16:35:17.471Z,0.90
2022-09-17T16:37:48.904Z,1.80
2022-09-17T16:40:19.273Z,1.00
2022-09-17T16:42:47.869Z,1.10
2022-09-17T16:45:16.947Z,1.63
2022-09-17T16:47:45.197Z,1.47
2022-09-17T16:50:16.100Z,2.30
2022-09-17T16:52:45.239Z,2.43
2022-09-17T16:55:14.930Z,3.00
2022-09-17T16:57:45.150Z,3.10
2022-09-17T17:00:17.315Z,3.07
2022-09-17T17:02:47.274Z,2.70
2022-09-17T17:05:16.093Z,2.93
2022-09-17T17:07:44.462Z,3.03
2022-09-17T17:10:12.765Z,2.50
2022-09-17T17:12:40.869Z,3.40
2022-09-17T17:15:11.048Z,2.30
2022-09-17T17:17:39.742Z,2.67
2022-09-17T17:20:10.004Z,2.50
2022-09-17T17:22:38.800Z,2.07
2022-09-17T17:25:08.357Z,1.50
2022-09-17T17:27:36.710Z,1.07
2022-09-17T17:30:06.849Z,1.20
2022-09-17T17:32:38.214Z,1.27
2022-09-17T17:35:07.674Z,1.20
2022-09-17T17:37:35.911Z,0.93
2022-09-17T17:40:07.070Z,1.30
2022-09-17T17:42:38.605Z,1.30
2022-09-17T17:45:08.518Z,1.53
2022-09-17T17:47:38.267Z,1.20
2022-09-17T17:50:08.885Z,1.00
2022-09-17T17:52:39.110Z,1.13
2022-09-17T17:55:08.077Z,0.83
2022-09-17T17:57:36.584Z,1.03
2022-09-17T18:00:05.572Z,1.40
2022-09-17T18:02:33.839Z,1.40
2022-09-17T18:05:04.513Z,1.33
2022-09-17T18:07:34.043Z,1.50
2022-09-17T18:10:02.186Z,1.47
2022-09-17T18:12:30.590Z,1.57
2022-09-17T18:14:59.258Z,1.40
2022-09-17T18:17:27.383Z,1.33
2022-09-17T18:19:56.776Z,1.47
2022-09-17T18:22:26.609Z,1.90
2022-09-17T18:24:54.857Z,2.17
2022-09-17T18:27:23.022Z,2.77
2022-09-17T18:29:51.416Z,2.10
2022-09-17T18:32:19.584Z,1.50
2022-09-17T18:34:47.826Z,1.43
2022-09-17T18:37:16.065Z,0.90
2022-09-17T18:39:58.018Z,1.00
2022-09-17T18:42:27.270Z,0.90
2022-09-17T18:44:55.426Z,0.97
2022-09-17T18:47:23.541Z,1.10
2022-09-17T18:49:52.021Z,1.00
2022-09-17T18:52:20.255Z,1.10
2022-09-17T18:54:50.216Z,1.30
2022-09-17T18:57:18.582Z,1.10
2022-09-17T18:59:46.972Z,1.40
2022-09-17T19:02:15.595Z,1.33
2022-09-17T19:04:44.078Z,1.20
2022-09-17T19:07:12.256Z,1.40
2022-09-17T19:09:40.696Z,1.10
2022-09-17T19:12:10.257Z,1.20
2022-09-17T19:14:38.393Z,1.20
2022-09-17T19:17:06.891Z,1.50
2022-09-17T19:19:35.426Z,1.30
2022-09-17T19:22:03.661Z,1.10
2022-09-17T19:24:33.148Z,1.10
2022-09-17T19:27:01.765Z,1.07
2022-09-17T19:29:31.285Z,1.10
2022-09-17T19:31:59.611Z,1.13
2022-09-17T19:34:27.937Z,0.83
2022-09-17T19:36:56.036Z,0.90
2022-09-17T19:39:24.486Z,1.27
2022-09-17T19:41:52.974Z,1.83
2022-09-17T19:44:21.101Z,1.33
2022-09-17T19:46:52.973Z,1.17
2022-09-17T19:49:21.229Z,0.80
2022-09-17T19:51:49.393Z,0.90
2022-09-17T19:54:17.847Z,1.00
2022-09-17T19:56:46.480Z,1.10
2022-09-17T19:59:14.673Z,1.10
2022-09-17T20:01:48.682Z,1.20
2022-09-17T20:04:19.479Z,1.30
2022-09-17T20:06:47.925Z,1.00
2022-09-17T20:09:16.014Z,1.00
2022-09-17T20:11:44.586Z,1.10
2022-09-17T20:14:13.771Z,1.00
2022-09-17T20:16:43.490Z,1.10
2022-09-17T20:19:16.147Z,1.10
2022-09-17T20:21:45.659Z,1.30
2022-09-17T20:24:13.948Z,0.97
2022-09-17T20:26:42.244Z,1.20
2022-09-17T20:29:10.836Z,1.23
2022-09-17T20:31:39.120Z,0.90
2022-09-17T20:34:07.730Z,1.00
2022-09-17T20:36:36.629Z,1.30
2022-09-17T20:39:11.755Z,1.30
2022-09-17T20:41:43.264Z,1.17
2022-09-17T20:44:11.386Z,1.20
2022-09-17T20:46:39.636Z,1.30
2022-09-17T20:49:08.324Z,1.10
2022-09-17T20:51:36.763Z,1.40
2022-09-17T20:54:07.632Z,1.30
2022-09-17T20:56:36.789Z,1.30
2022-09-17T20:59:14.380Z,1.53
2022-09-17T21:01:45.338Z,1.43
2022-09-17T21:04:16.659Z,1.30
2022-09-17T21:06:46.109Z,1.40
2022-09-17T21:09:16.828Z,1.50
2022-09-17T21:11:46.715Z,1.30
2022-09-17T21:14:17.535Z,1.60
2022-09-17T21:16:46.676Z,1.40
2022-09-17T21:19:16.762Z,1.63
2022-09-17T21:21:45.223Z,1.43
2022-09-17T21:24:13.474Z,1.50
2022-09-17T21:26:45.274Z,1.30
2022-09-17T21:29:13.470Z,1.43
2022-09-17T21:31:41.608Z,1.40
2022-09-17T21:34:13.077Z,1.37
2022-09-17T21:36:43.437Z,1.13
2022-09-17T21:39:14.613Z,1.27
2022-09-17T21:41:44.588Z,1.20
2022-09-17T21:44:13.549Z,1.30
2022-09-17T21:46:42.922Z,1.40
2022-09-17T21:49:11.197Z,1.17
2022-09-17T21:51:40.875Z,1.30
2022-09-17T21:54:10.802Z,1.50
2022-09-17T21:56:39.432Z,1.53
2022-09-17T21:59:11.225Z,1.40
2022-09-17T22:01:41.343Z,1.50
2022-09-17T22:04:10.885Z,1.50
2022-09-17T22:06:39.437Z,1.40
2022-09-17T22:09:09.505Z,1.60
2022-09-17T22:11:38.689Z,1.40
2022-09-17T22:14:11.322Z,1.50
2022-09-17T22:16:41.002Z,1.30
2022-09-17T22:19:10.758Z,1.40
2022-09-17T22:21:41.016Z,1.40
2022-09-17T22:24:11.133Z,1.60
2022-09-17T22:26:43.475Z,1.40
2022-09-17T22:29:15.511Z,1.50
2022-09-17T22:31:45.268Z,2.30
2022-09-17T22:34:15.419Z,2.50
2022-09-17T22:36:43.942Z,3.20
2022-09-17T22:39:12.433Z,2.80
2022-09-17T22:41:44.317Z,2.77
2022-09-17T22:44:15.833Z,2.90
2022-09-17T22:46:46.433Z,1.83
2022-09-17T22:49:14.912Z,2.20
2022-09-17T22:51:43.669Z,2.33
2022-09-17T22:54:12.846Z,2.67
2022-09-17T22:56:41.718Z,2.60
2022-09-17T22:59:09.996Z,2.50
2022-09-17T23:01:41.155Z,2.10
2022-09-17T23:04:09.716Z,2.20
2022-09-17T23:06:42.153Z,2.50
2022-09-17T23:09:10.457Z,2.60
2022-09-17T23:11:40.130Z,2.07
2022-09-17T23:14:11.968Z,1.70
2022-09-17T23:16:43.161Z,1.60
2022-09-17T23:19:12.130Z,1.30
2022-09-17T23:21:41.000Z,1.60
2022-09-17T23:24:10.133Z,1.53
2022-09-17T23:26:38.501Z,2.40
2022-09-17T23:29:06.709Z,1.23
2022-09-17T23:31:35.860Z,1.53
2022-09-17T23:34:06.630Z,1.43
2022-09-17T23:36:36.418Z,1.77
2022-09-17T23:39:06.526Z,2.10
2022-09-17T23:41:37.261Z,1.70
2022-09-17T23:44:10.902Z,1.40
2022-09-17T23:46:42.340Z,1.80
2022-09-17T23:49:14.094Z,1.80
2022-09-17T23:51:42.476Z,1.10
2022-09-17T23:54:10.750Z,1.37
2022-09-17T23:56:39.436Z,1.60
2022-09-17T23:59:08.563Z,2.10
